sensor_id;sensor_type;location;lat;lon;timestamp;temperature;humidity
3001;DHT22;1510;51.072;6.678;2023-05-06T00:00:47;10.90;99.90
3001;DHT22;1510;51.072;6.678;2023-05-06T00:03:15;10.70;99.90
3001;DHT22;1510;51.072;6.678;2023-05-06T00:05:42;10.70;99.90
3001;DHT22;1510;51.072;6.678;2023-05-06T00:08:10;10.60;99.90
3001;DHT22;1510;51.072;6.678;2023-05-06T00:10:37;10.60;99.90
3001;DHT22;1510;51.072;6.678;2023-05-06T00:13:04;10.60;99.90
3001;DHT22;1510;51.072;6.678;2023-05-06T00:15:33;10.40;99.90
3001;DHT22;1510;51.072;6.678;2023-05-06T00:18:00;10.40;99.90
3001;DHT22;1510;51.072;6.678;2023-05-06T00:20:29;10.30;99.90
3001;DHT22;1510;51.072;6.678;2023-05-06T00:22:56;10.30;99.90
3001;DHT22;1510;51.072;6.678;2023-05-06T00:25:23;10.20;99.90
3001;DHT22;1510;51.072;6.678;2023-05-06T00:27:50;10.30;99.90
3001;DHT22;1510;51.072;6.678;2023-05-06T00:30:18;10.20;99.90
3001;DHT22;1510;51.072;6.678;2023-05-06T00:32:45;10.10;99.90
3001;DHT22;1510;51.072;6.678;2023-05-06T00:35:12;10.10;99.90
3001;DHT22;1510;51.072;6.678;2023-05-06T00:37:43;10.00;99.90
3001;DHT22;1510;51.072;6.678;2023-05-06T00:40:11;10.00;99.90
3001;DHT22;1510;51.072;6.678;2023-05-06T00:42:38;9.90;99.90
3001;DHT22;1510;51.072;6.678;2023-05-06T00:45:06;10.10;99.90
3001;DHT22;1510;51.072;6.678;2023-05-06T00:47:33;10.10;99.90
3001;DHT22;1510;51.072;6.678;2023-05-06T00:50:01;10.10;99.90
3001;DHT22;1510;51.072;6.678;2023-05-06T00:52:28;10.20;99.90
3001;DHT22;1510;51.072;6.678;2023-05-06T00:54:57;10.10;99.90
3001;DHT22;1510;51.072;6.678;2023-05-06T00:57:24;10.20;99.90
3001;DHT22;1510;51.072;6.678;2023-05-06T00:59:52;10.10;99.90
3001;DHT22;1510;51.072;6.678;2023-05-06T01:02:19;10.00;99.90
3001;DHT22;1510;51.072;6.678;2023-05-06T01:04:46;9.90;99.90
3001;DHT22;1510;51.072;6.678;2023-05-06T01:07:22;9.80;99.90
3001;DHT22;1510;51.072;6.678;2023-05-06T01:09:54;9.80;99.90
3001;DHT22;1510;51.072;6.678;2023-05-06T01:12:31;9.90;99.90
3001;DHT22;1510;51.072;6.678;2023-05-06T01:15:02;9.70;99.90
3001;DHT22;1510;51.072;6.678;2023-05-06T01:17:35;9.70;99.90
3001;DHT22;1510;51.072;6.678;2023-05-06T01:20:05;9.50;99.90
3001;DHT22;1510;51.072;6.678;2023-05-06T01:22:36;9.60;99.90
3001;DHT22;1510;51.072;6.678;2023-05-06T01:25:05;9.70;99.90
3001;DHT22;1510;51.072;6.678;2023-05-06T01:27:32;9.50;99.90
3001;DHT22;1510;51.072;6.678;2023-05-06T01:29:59;9.30;99.90
3001;DHT22;1510;51.072;6.678;2023-05-06T01:32:36;9.40;99.90
3001;DHT22;1510;51.072;6.678;2023-05-06T01:35:14;9.30;99.90
3001;DHT22;1510;51.072;6.678;2023-05-06T01:37:47;9.30;99.90
3001;DHT22;1510;51.072;6.678;2023-05-06T01:40:21;9.10;99.90
3001;DHT22;1510;51.072;6.678;2023-05-06T01:42:51;9.10;99.90
3001;DHT22;1510;51.072;6.678;2023-05-06T01:45:20;9.10;99.90
3001;DHT22;1510;51.072;6.678;2023-05-06T01:47:48;9.00;99.90
3001;DHT22;1510;51.072;6.678;2023-05-06T01:50:15;8.90;99.90
3001;DHT22;1510;51.072;6.678;2023-05-06T01:52:42;8.90;99.90
3001;DHT22;1510;51.072;6.678;2023-05-06T01:55:09;8.90;99.90
3001;DHT22;1510;51.072;6.678;2023-05-06T01:57:37;8.90;99.90
3001;DHT22;1510;51.072;6.678;2023-05-06T02:00:06;8.90;99.90
3001;DHT22;1510;51.072;6.678;2023-05-06T02:02:34;8.90;99.90
3001;DHT22;1510;51.072;6.678;2023-05-06T02:05:01;8.80;99.90
3001;DHT22;1510;51.072;6.678;2023-05-06T02:07:28;9.00;99.90
3001;DHT22;1510;51.072;6.678;2023-05-06T02:09:55;9.00;99.90
3001;DHT22;1510;51.072;6.678;2023-05-06T02:12:22;8.90;99.90
3001;DHT22;1510;51.072;6.678;2023-05-06T02:14:50;8.90;99.90
3001;DHT22;1510;51.072;6.678;2023-05-06T02:17:17;8.70;99.90
3001;DHT22;1510;51.072;6.678;2023-05-06T02:19:44;8.50;99.90
3001;DHT22;1510;51.072;6.678;2023-05-06T02:22:11;8.60;99.90
3001;DHT22;1510;51.072;6.678;2023-05-06T02:24:38;8.70;99.90
3001;DHT22;1510;51.072;6.678;2023-05-06T02:27:05;8.60;99.90
3001;DHT22;1510;51.072;6.678;2023-05-06T02:29:32;8.70;99.90
3001;DHT22;1510;51.072;6.678;2023-05-06T02:32:00;8.50;99.90
3001;DHT22;1510;51.072;6.678;2023-05-06T02:34:27;8.50;99.90
3001;DHT22;1510;51.072;6.678;2023-05-06T02:36:54;8.40;99.90
3001;DHT22;1510;51.072;6.678;2023-05-06T02:39:21;8.40;99.90
3001;DHT22;1510;51.072;6.678;2023-05-06T02:41:48;8.40;99.90
3001;DHT22;1510;51.072;6.678;2023-05-06T02:44:15;8.30;99.90
3001;DHT22;1510;51.072;6.678;2023-05-06T02:46:42;8.30;99.90
3001;DHT22;1510;51.072;6.678;2023-05-06T02:49:10;8.40;99.90
3001;DHT22;1510;51.072;6.678;2023-05-06T02:51:37;8.50;99.90
3001;DHT22;1510;51.072;6.678;2023-05-06T02:54:04;8.40;99.90
3001;DHT22;1510;51.072;6.678;2023-05-06T02:56:31;8.50;99.90
3001;DHT22;1510;51.072;6.678;2023-05-06T02:58:59;8.40;99.90
3001;DHT22;1510;51.072;6.678;2023-05-06T03:01:26;8.40;99.90
3001;DHT22;1510;51.072;6.678;2023-05-06T03:03:53;8.40;99.90
3001;DHT22;1510;51.072;6.678;2023-05-06T03:06:21;8.30;99.90
3001;DHT22;1510;51.072;6.678;2023-05-06T03:08:48;8.30;99.90
3001;DHT22;1510;51.072;6.678;2023-05-06T03:11:15;8.20;99.90
3001;DHT22;1510;51.072;6.678;2023-05-06T03:13:42;8.20;99.90
3001;DHT22;1510;51.072;6.678;2023-05-06T03:16:11;8.10;99.90
3001;DHT22;1510;51.072;6.678;2023-05-06T03:18:38;8.10;99.90
3001;DHT22;1510;51.072;6.678;2023-05-06T03:21:05;8.10;99.90
3001;DHT22;1510;51.072;6.678;2023-05-06T03:23:34;8.00;99.90
3001;DHT22;1510;51.072;6.678;2023-05-06T03:26:01;8.00;99.90
3001;DHT22;1510;51.072;6.678;2023-05-06T03:28:27;8.00;99.90
3001;DHT22;1510;51.072;6.678;2023-05-06T03:30:54;8.10;99.90
3001;DHT22;1510;51.072;6.678;2023-05-06T03:33:21;8.00;99.90
3001;DHT22;1510;51.072;6.678;2023-05-06T03:35:48;8.10;99.90
3001;DHT22;1510;51.072;6.678;2023-05-06T03:38:15;8.10;99.90
3001;DHT22;1510;51.072;6.678;2023-05-06T03:40:47;8.30;99.90
3001;DHT22;1510;51.072;6.678;2023-05-06T03:43:13;8.40;99.90
3001;DHT22;1510;51.072;6.678;2023-05-06T03:45:41;8.40;99.90
3001;DHT22;1510;51.072;6.678;2023-05-06T03:48:08;8.50;99.90
3001;DHT22;1510;51.072;6.678;2023-05-06T03:50:38;8.40;99.90
3001;DHT22;1510;51.072;6.678;2023-05-06T03:53:05;8.50;99.90
3001;DHT22;1510;51.072;6.678;2023-05-06T03:55:32;8.30;99.90
3001;DHT22;1510;51.072;6.678;2023-05-06T03:58:01;8.20;99.90
3001;DHT22;1510;51.072;6.678;2023-05-06T04:00:27;8.10;99.90
3001;DHT22;1510;51.072;6.678;2023-05-06T04:02:54;8.10;99.90
3001;DHT22;1510;51.072;6.678;2023-05-06T04:05:21;8.00;99.90
3001;DHT22;1510;51.072;6.678;2023-05-06T04:07:48;7.90;99.90
3001;DHT22;1510;51.072;6.678;2023-05-06T04:10:15;8.00;99.90
3001;DHT22;1510;51.072;6.678;2023-05-06T04:12:42;7.90;99.90
3001;DHT22;1510;51.072;6.678;2023-05-06T04:15:11;7.90;99.90
3001;DHT22;1510;51.072;6.678;2023-05-06T04:17:38;7.80;99.90
3001;DHT22;1510;51.072;6.678;2023-05-06T04:20:06;7.90;99.90
3001;DHT22;1510;51.072;6.678;2023-05-06T04:22:36;7.80;99.90
3001;DHT22;1510;51.072;6.678;2023-05-06T04:25:04;7.90;99.90
3001;DHT22;1510;51.072;6.678;2023-05-06T04:27:31;7.90;99.90
3001;DHT22;1510;51.072;6.678;2023-05-06T04:29:58;7.80;99.90
3001;DHT22;1510;51.072;6.678;2023-05-06T04:32:26;8.00;99.90
3001;DHT22;1510;51.072;6.678;2023-05-06T04:34:53;8.00;99.90
3001;DHT22;1510;51.072;6.678;2023-05-06T04:37:21;8.00;99.90
3001;DHT22;1510;51.072;6.678;2023-05-06T04:39:48;8.20;99.90
3001;DHT22;1510;51.072;6.678;2023-05-06T04:42:15;8.20;99.90
3001;DHT22;1510;51.072;6.678;2023-05-06T04:44:42;8.30;99.90
3001;DHT22;1510;51.072;6.678;2023-05-06T04:47:09;8.30;99.90
3001;DHT22;1510;51.072;6.678;2023-05-06T04:49:38;8.40;99.90
3001;DHT22;1510;51.072;6.678;2023-05-06T04:52:05;8.40;99.90
3001;DHT22;1510;51.072;6.678;2023-05-06T04:54:32;8.50;99.90
3001;DHT22;1510;51.072;6.678;2023-05-06T04:56:59;8.50;99.90
3001;DHT22;1510;51.072;6.678;2023-05-06T04:59:26;8.60;99.90
3001;DHT22;1510;51.072;6.678;2023-05-06T05:01:53;8.60;99.90
3001;DHT22;1510;51.072;6.678;2023-05-06T05:04:20;8.70;99.90
3001;DHT22;1510;51.072;6.678;2023-05-06T05:06:48;8.80;99.90
3001;DHT22;1510;51.072;6.678;2023-05-06T05:09:15;8.80;99.90
3001;DHT22;1510;51.072;6.678;2023-05-06T05:11:43;8.90;99.90
3001;DHT22;1510;51.072;6.678;2023-05-06T05:14:09;9.00;99.90
3001;DHT22;1510;51.072;6.678;2023-05-06T05:16:36;9.00;99.90
3001;DHT22;1510;51.072;6.678;2023-05-06T05:19:03;9.00;99.90
3001;DHT22;1510;51.072;6.678;2023-05-06T05:21:30;9.10;99.90
3001;DHT22;1510;51.072;6.678;2023-05-06T05:23:59;9.30;99.90
3001;DHT22;1510;51.072;6.678;2023-05-06T05:26:26;9.60;99.90
3001;DHT22;1510;51.072;6.678;2023-05-06T05:28:53;10.10;99.90
3001;DHT22;1510;51.072;6.678;2023-05-06T05:31:20;10.70;99.90
3001;DHT22;1510;51.072;6.678;2023-05-06T05:33:47;11.10;99.90
3001;DHT22;1510;51.072;6.678;2023-05-06T05:36:14;11.50;99.90
3001;DHT22;1510;51.072;6.678;2023-05-06T05:38:41;11.80;99.90
3001;DHT22;1510;51.072;6.678;2023-05-06T05:41:09;12.20;99.90
3001;DHT22;1510;51.072;6.678;2023-05-06T05:43:36;12.60;99.90
3001;DHT22;1510;51.072;6.678;2023-05-06T05:46:03;12.80;99.90
3001;DHT22;1510;51.072;6.678;2023-05-06T05:48:30;13.30;99.90
3001;DHT22;1510;51.072;6.678;2023-05-06T05:50:58;13.40;99.90
3001;DHT22;1510;51.072;6.678;2023-05-06T05:53:27;13.80;99.90
3001;DHT22;1510;51.072;6.678;2023-05-06T05:55:54;13.90;99.90
3001;DHT22;1510;51.072;6.678;2023-05-06T05:58:22;14.20;99.90
3001;DHT22;1510;51.072;6.678;2023-05-06T06:00:49;14.50;99.90
3001;DHT22;1510;51.072;6.678;2023-05-06T06:03:17;14.80;99.90
3001;DHT22;1510;51.072;6.678;2023-05-06T06:05:44;15.10;99.90
3001;DHT22;1510;51.072;6.678;2023-05-06T06:08:11;15.30;99.90
3001;DHT22;1510;51.072;6.678;2023-05-06T06:10:38;15.70;99.90
3001;DHT22;1510;51.072;6.678;2023-05-06T06:13:06;15.90;99.90
3001;DHT22;1510;51.072;6.678;2023-05-06T06:15:34;16.20;99.90
3001;DHT22;1510;51.072;6.678;2023-05-06T06:18:01;16.10;99.90
3001;DHT22;1510;51.072;6.678;2023-05-06T06:20:31;16.30;99.90
3001;DHT22;1510;51.072;6.678;2023-05-06T06:22:58;16.30;99.90
3001;DHT22;1510;51.072;6.678;2023-05-06T06:25:25;16.50;99.90
3001;DHT22;1510;51.072;6.678;2023-05-06T06:27:53;16.60;99.90
3001;DHT22;1510;51.072;6.678;2023-05-06T06:30:21;16.40;99.90
3001;DHT22;1510;51.072;6.678;2023-05-06T06:32:51;16.50;99.90
3001;DHT22;1510;51.072;6.678;2023-05-06T06:35:18;16.20;99.90
3001;DHT22;1510;51.072;6.678;2023-05-06T06:37:46;16.10;99.90
3001;DHT22;1510;51.072;6.678;2023-05-06T06:40:13;16.10;99.90
3001;DHT22;1510;51.072;6.678;2023-05-06T06:42:40;16.20;99.90
3001;DHT22;1510;51.072;6.678;2023-05-06T06:45:08;16.20;99.90
3001;DHT22;1510;51.072;6.678;2023-05-06T06:47:35;16.30;99.90
3001;DHT22;1510;51.072;6.678;2023-05-06T06:50:05;16.30;99.90
3001;DHT22;1510;51.072;6.678;2023-05-06T06:52:32;16.20;99.90
3001;DHT22;1510;51.072;6.678;2023-05-06T06:55:00;16.30;99.90
3001;DHT22;1510;51.072;6.678;2023-05-06T06:57:27;16.40;99.90
3001;DHT22;1510;51.072;6.678;2023-05-06T06:59:54;16.20;99.90
3001;DHT22;1510;51.072;6.678;2023-05-06T07:02:21;16.10;99.90
3001;DHT22;1510;51.072;6.678;2023-05-06T07:04:48;16.00;99.90
3001;DHT22;1510;51.072;6.678;2023-05-06T07:07:16;16.00;99.90
3001;DHT22;1510;51.072;6.678;2023-05-06T07:09:43;15.90;99.90
3001;DHT22;1510;51.072;6.678;2023-05-06T07:12:10;16.00;99.90
3001;DHT22;1510;51.072;6.678;2023-05-06T07:14:37;15.90;99.90
3001;DHT22;1510;51.072;6.678;2023-05-06T07:17:04;15.80;99.90
3001;DHT22;1510;51.072;6.678;2023-05-06T07:19:31;15.70;99.90
3001;DHT22;1510;51.072;6.678;2023-05-06T07:21:59;15.80;99.90
3001;DHT22;1510;51.072;6.678;2023-05-06T07:24:28;15.80;99.90
3001;DHT22;1510;51.072;6.678;2023-05-06T07:26:55;15.90;99.90
3001;DHT22;1510;51.072;6.678;2023-05-06T07:29:23;15.70;99.90
3001;DHT22;1510;51.072;6.678;2023-05-06T07:31:50;15.80;99.90
3001;DHT22;1510;51.072;6.678;2023-05-06T07:34:17;15.70;99.90
3001;DHT22;1510;51.072;6.678;2023-05-06T07:36:44;15.80;99.90
3001;DHT22;1510;51.072;6.678;2023-05-06T07:39:12;15.90;99.90
3001;DHT22;1510;51.072;6.678;2023-05-06T07:41:41;15.90;99.90
3001;DHT22;1510;51.072;6.678;2023-05-06T07:44:08;16.00;99.90
3001;DHT22;1510;51.072;6.678;2023-05-06T07:46:34;16.10;99.90
3001;DHT22;1510;51.072;6.678;2023-05-06T07:49:01;16.20;99.90
3001;DHT22;1510;51.072;6.678;2023-05-06T07:51:28;16.20;99.90
3001;DHT22;1510;51.072;6.678;2023-05-06T07:53:56;16.40;99.90
3001;DHT22;1510;51.072;6.678;2023-05-06T07:56:23;16.60;99.90
3001;DHT22;1510;51.072;6.678;2023-05-06T07:58:51;16.70;99.90
3001;DHT22;1510;51.072;6.678;2023-05-06T08:01:18;16.90;99.90
3001;DHT22;1510;51.072;6.678;2023-05-06T08:03:45;17.00;99.90
3001;DHT22;1510;51.072;6.678;2023-05-06T08:06:14;17.60;99.90
3001;DHT22;1510;51.072;6.678;2023-05-06T08:08:40;17.90;99.90
3001;DHT22;1510;51.072;6.678;2023-05-06T08:11:07;18.30;99.90
3001;DHT22;1510;51.072;6.678;2023-05-06T08:13:35;18.80;99.90
3001;DHT22;1510;51.072;6.678;2023-05-06T08:16:03;19.10;99.90
3001;DHT22;1510;51.072;6.678;2023-05-06T08:18:31;19.30;99.90
3001;DHT22;1510;51.072;6.678;2023-05-06T08:20:58;19.50;99.90
3001;DHT22;1510;51.072;6.678;2023-05-06T08:23:25;20.10;99.90
3001;DHT22;1510;51.072;6.678;2023-05-06T08:25:52;20.00;99.90
3001;DHT22;1510;51.072;6.678;2023-05-06T08:28:19;20.70;99.90
3001;DHT22;1510;51.072;6.678;2023-05-06T08:30:46;20.80;97.90
3001;DHT22;1510;51.072;6.678;2023-05-06T08:33:17;20.90;98.20
3001;DHT22;1510;51.072;6.678;2023-05-06T08:35:44;21.10;96.60
3001;DHT22;1510;51.072;6.678;2023-05-06T08:38:11;21.50;96.50
3001;DHT22;1510;51.072;6.678;2023-05-06T08:40:41;21.80;95.90
3001;DHT22;1510;51.072;6.678;2023-05-06T08:43:11;22.20;94.70
3001;DHT22;1510;51.072;6.678;2023-05-06T08:45:39;22.30;91.40
3001;DHT22;1510;51.072;6.678;2023-05-06T08:48:06;22.70;92.00
3001;DHT22;1510;51.072;6.678;2023-05-06T08:50:40;22.80;89.30
3001;DHT22;1510;51.072;6.678;2023-05-06T08:53:09;22.70;88.50
3001;DHT22;1510;51.072;6.678;2023-05-06T08:55:38;22.90;82.70
3001;DHT22;1510;51.072;6.678;2023-05-06T08:58:06;22.70;81.80
3001;DHT22;1510;51.072;6.678;2023-05-06T09:00:33;23.10;77.80
3001;DHT22;1510;51.072;6.678;2023-05-06T09:03:01;23.00;80.90
3001;DHT22;1510;51.072;6.678;2023-05-06T09:05:28;22.70;77.30
3001;DHT22;1510;51.072;6.678;2023-05-06T09:07:56;22.90;75.00
3001;DHT22;1510;51.072;6.678;2023-05-06T09:10:29;23.50;75.30
3001;DHT22;1510;51.072;6.678;2023-05-06T09:12:57;23.90;77.90
3001;DHT22;1510;51.072;6.678;2023-05-06T09:15:26;24.10;71.30
3001;DHT22;1510;51.072;6.678;2023-05-06T09:17:54;24.10;65.60
3001;DHT22;1510;51.072;6.678;2023-05-06T09:20:21;24.30;64.00
3001;DHT22;1510;51.072;6.678;2023-05-06T09:22:48;24.90;64.70
3001;DHT22;1510;51.072;6.678;2023-05-06T09:25:18;24.70;57.60
3001;DHT22;1510;51.072;6.678;2023-05-06T09:27:45;24.50;57.50
3001;DHT22;1510;51.072;6.678;2023-05-06T09:30:12;23.90;56.90
3001;DHT22;1510;51.072;6.678;2023-05-06T09:32:40;23.50;60.80
3001;DHT22;1510;51.072;6.678;2023-05-06T09:35:10;23.10;61.80
3001;DHT22;1510;51.072;6.678;2023-05-06T09:37:37;23.10;64.70
3001;DHT22;1510;51.072;6.678;2023-05-06T09:40:06;23.90;64.30
3001;DHT22;1510;51.072;6.678;2023-05-06T09:42:35;24.10;57.10
3001;DHT22;1510;51.072;6.678;2023-05-06T09:45:02;24.30;57.30
3001;DHT22;1510;51.072;6.678;2023-05-06T09:47:32;24.10;54.90
3001;DHT22;1510;51.072;6.678;2023-05-06T09:50:00;24.70;55.50
3001;DHT22;1510;51.072;6.678;2023-05-06T09:52:27;25.00;53.70
3001;DHT22;1510;51.072;6.678;2023-05-06T09:54:56;25.30;46.30
3001;DHT22;1510;51.072;6.678;2023-05-06T09:57:23;24.70;47.80
3001;DHT22;1510;51.072;6.678;2023-05-06T09:59:52;24.70;48.20
3001;DHT22;1510;51.072;6.678;2023-05-06T10:02:21;24.90;50.60
3001;DHT22;1510;51.072;6.678;2023-05-06T10:04:49;25.10;45.40
3001;DHT22;1510;51.072;6.678;2023-05-06T10:07:19;25.80;40.50
3001;DHT22;1510;51.072;6.678;2023-05-06T10:09:48;26.00;41.90
3001;DHT22;1510;51.072;6.678;2023-05-06T10:12:16;25.60;40.40
3001;DHT22;1510;51.072;6.678;2023-05-06T10:14:44;24.80;43.60
3001;DHT22;1510;51.072;6.678;2023-05-06T10:17:13;25.20;42.50
3001;DHT22;1510;51.072;6.678;2023-05-06T10:19:44;24.70;40.90
3001;DHT22;1510;51.072;6.678;2023-05-06T10:22:15;24.40;41.90
3001;DHT22;1510;51.072;6.678;2023-05-06T10:24:51;24.80;39.80
3001;DHT22;1510;51.072;6.678;2023-05-06T10:27:22;25.40;40.30
3001;DHT22;1510;51.072;6.678;2023-05-06T10:29:52;25.10;35.40
3001;DHT22;1510;51.072;6.678;2023-05-06T10:32:20;25.30;36.60
3001;DHT22;1510;51.072;6.678;2023-05-06T10:34:53;25.30;30.20
3001;DHT22;1510;51.072;6.678;2023-05-06T10:37:22;26.00;28.50
3001;DHT22;1510;51.072;6.678;2023-05-06T10:39:51;26.90;25.70
3001;DHT22;1510;51.072;6.678;2023-05-06T10:42:19;27.40;24.60
3001;DHT22;1510;51.072;6.678;2023-05-06T10:44:56;26.90;24.30
3001;DHT22;1510;51.072;6.678;2023-05-06T10:47:25;27.60;21.00
3001;DHT22;1510;51.072;6.678;2023-05-06T10:50:20;28.20;17.60
3001;DHT22;1510;51.072;6.678;2023-05-06T10:52:49;28.00;17.40
3001;DHT22;1510;51.072;6.678;2023-05-06T10:55:27;27.10;19.20
3001;DHT22;1510;51.072;6.678;2023-05-06T10:57:55;27.40;15.70
3001;DHT22;1510;51.072;6.678;2023-05-06T11:00:23;27.70;17.30
3001;DHT22;1510;51.072;6.678;2023-05-06T11:02:55;27.70;17.30
3001;DHT22;1510;51.072;6.678;2023-05-06T11:05:22;26.70;16.70
3001;DHT22;1510;51.072;6.678;2023-05-06T11:07:50;27.40;17.10
3001;DHT22;1510;51.072;6.678;2023-05-06T11:10:31;27.90;17.40
3001;DHT22;1510;51.072;6.678;2023-05-06T11:13:18;28.60;10.80
3001;DHT22;1510;51.072;6.678;2023-05-06T11:15:45;28.50;10.00
3001;DHT22;1510;51.072;6.678;2023-05-06T11:18:41;28.80;9.80
3001;DHT22;1510;51.072;6.678;2023-05-06T11:21:36;28.60;8.30
3001;DHT22;1510;51.072;6.678;2023-05-06T11:24:11;28.70;8.00
3001;DHT22;1510;51.072;6.678;2023-05-06T11:26:40;27.70;9.60
3001;DHT22;1510;51.072;6.678;2023-05-06T11:29:08;27.20;13.70
3001;DHT22;1510;51.072;6.678;2023-05-06T11:31:39;26.70;12.20
3001;DHT22;1510;51.072;6.678;2023-05-06T11:34:10;26.40;16.50
3001;DHT22;1510;51.072;6.678;2023-05-06T11:36:45;26.00;15.40
3001;DHT22;1510;51.072;6.678;2023-05-06T11:39:12;25.80;20.40
3001;DHT22;1510;51.072;6.678;2023-05-06T11:41:39;25.40;19.80
3001;DHT22;1510;51.072;6.678;2023-05-06T11:44:07;25.60;23.60
3001;DHT22;1510;51.072;6.678;2023-05-06T11:46:34;26.70;20.70
3001;DHT22;1510;51.072;6.678;2023-05-06T11:49:16;26.20;15.20
3001;DHT22;1510;51.072;6.678;2023-05-06T11:51:43;26.20;16.40
3001;DHT22;1510;51.072;6.678;2023-05-06T11:54:10;27.20;15.10
3001;DHT22;1510;51.072;6.678;2023-05-06T11:56:43;28.00;9.80
3001;DHT22;1510;51.072;6.678;2023-05-06T11:59:10;28.40;10.00
3001;DHT22;1510;51.072;6.678;2023-05-06T12:01:40;28.90;5.50
3001;DHT22;1510;51.072;6.678;2023-05-06T12:04:07;28.90;7.80
3001;DHT22;1510;51.072;6.678;2023-05-06T12:06:36;28.20;5.70
3001;DHT22;1510;51.072;6.678;2023-05-06T12:09:05;28.70;5.90
3001;DHT22;1510;51.072;6.678;2023-05-06T12:11:32;28.20;3.80
3001;DHT22;1510;51.072;6.678;2023-05-06T12:14:00;27.80;11.60
3001;DHT22;1510;51.072;6.678;2023-05-06T12:16:27;27.50;4.50
3001;DHT22;1510;51.072;6.678;2023-05-06T12:18:54;28.80;7.30
3001;DHT22;1510;51.072;6.678;2023-05-06T12:21:22;28.90;2.30
3001;DHT22;1510;51.072;6.678;2023-05-06T12:23:51;27.80;6.20
3001;DHT22;1510;51.072;6.678;2023-05-06T12:26:18;26.30;7.00
3001;DHT22;1510;51.072;6.678;2023-05-06T12:28:45;26.80;11.10
3001;DHT22;1510;51.072;6.678;2023-05-06T12:31:19;27.60;9.50
3001;DHT22;1510;51.072;6.678;2023-05-06T12:33:47;26.60;9.00
3001;DHT22;1510;51.072;6.678;2023-05-06T12:36:14;26.20;11.00
3001;DHT22;1510;51.072;6.678;2023-05-06T12:38:50;26.20;11.70
3001;DHT22;1510;51.072;6.678;2023-05-06T12:41:20;26.60;10.80
3001;DHT22;1510;51.072;6.678;2023-05-06T12:43:47;26.20;13.10
3001;DHT22;1510;51.072;6.678;2023-05-06T12:46:14;25.50;11.70
3001;DHT22;1510;51.072;6.678;2023-05-06T12:48:55;25.90;13.00
3001;DHT22;1510;51.072;6.678;2023-05-06T12:51:22;26.20;15.50
3001;DHT22;1510;51.072;6.678;2023-05-06T12:53:50;26.10;11.10
3001;DHT22;1510;51.072;6.678;2023-05-06T12:56:18;25.90;12.90
3001;DHT22;1510;51.072;6.678;2023-05-06T12:58:55;25.30;14.30
3001;DHT22;1510;51.072;6.678;2023-05-06T13:01:22;25.00;15.80
3001;DHT22;1510;51.072;6.678;2023-05-06T13:03:49;24.80;14.00
3001;DHT22;1510;51.072;6.678;2023-05-06T13:06:16;24.60;14.60
3001;DHT22;1510;51.072;6.678;2023-05-06T13:08:43;24.40;15.40
3001;DHT22;1510;51.072;6.678;2023-05-06T13:11:12;24.20;17.30
3001;DHT22;1510;51.072;6.678;2023-05-06T13:13:39;24.10;18.40
3001;DHT22;1510;51.072;6.678;2023-05-06T13:16:07;23.70;20.70
3001;DHT22;1510;51.072;6.678;2023-05-06T13:18:34;23.70;21.20
3001;DHT22;1510;51.072;6.678;2023-05-06T13:21:01;23.50;19.70
3001;DHT22;1510;51.072;6.678;2023-05-06T13:23:29;23.30;22.10
3001;DHT22;1510;51.072;6.678;2023-05-06T13:25:59;22.90;21.80
3001;DHT22;1510;51.072;6.678;2023-05-06T13:28:31;22.60;23.80
3001;DHT22;1510;51.072;6.678;2023-05-06T13:30:58;22.50;24.90
3001;DHT22;1510;51.072;6.678;2023-05-06T13:33:25;22.50;25.10
3001;DHT22;1510;51.072;6.678;2023-05-06T13:35:52;22.40;28.80
3001;DHT22;1510;51.072;6.678;2023-05-06T13:38:19;22.30;30.20
3001;DHT22;1510;51.072;6.678;2023-05-06T13:40:48;22.10;32.20
3001;DHT22;1510;51.072;6.678;2023-05-06T13:43:16;22.00;30.00
3001;DHT22;1510;51.072;6.678;2023-05-06T13:45:44;21.90;30.40
3001;DHT22;1510;51.072;6.678;2023-05-06T13:48:11;21.70;32.90
3001;DHT22;1510;51.072;6.678;2023-05-06T13:50:40;21.50;36.70
3001;DHT22;1510;51.072;6.678;2023-05-06T13:53:07;21.30;42.60
3001;DHT22;1510;51.072;6.678;2023-05-06T13:55:34;20.90;45.20
3001;DHT22;1510;51.072;6.678;2023-05-06T13:58:02;20.70;45.60
3001;DHT22;1510;51.072;6.678;2023-05-06T14:00:29;20.50;50.70
3001;DHT22;1510;51.072;6.678;2023-05-06T14:02:57;20.20;53.40
3001;DHT22;1510;51.072;6.678;2023-05-06T14:05:24;20.00;59.60
3001;DHT22;1510;51.072;6.678;2023-05-06T14:07:51;19.90;63.60
3001;DHT22;1510;51.072;6.678;2023-05-06T14:10:18;19.50;65.60
3001;DHT22;1510;51.072;6.678;2023-05-06T14:12:45;19.20;68.80
3001;DHT22;1510;51.072;6.678;2023-05-06T14:15:13;18.70;73.50
3001;DHT22;1510;51.072;6.678;2023-05-06T14:17:40;18.20;82.20
3001;DHT22;1510;51.072;6.678;2023-05-06T14:20:09;17.80;96.30
3001;DHT22;1510;51.072;6.678;2023-05-06T14:22:38;17.30;97.80
3001;DHT22;1510;51.072;6.678;2023-05-06T14:25:06;17.10;99.90
3001;DHT22;1510;51.072;6.678;2023-05-06T14:27:33;16.90;99.90
3001;DHT22;1510;51.072;6.678;2023-05-06T14:30:00;16.80;99.90
3001;DHT22;1510;51.072;6.678;2023-05-06T14:32:29;16.90;99.90
3001;DHT22;1510;51.072;6.678;2023-05-06T14:34:56;17.10;99.90
3001;DHT22;1510;51.072;6.678;2023-05-06T14:37:25;17.30;99.90
3001;DHT22;1510;51.072;6.678;2023-05-06T14:39:52;17.30;99.90
3001;DHT22;1510;51.072;6.678;2023-05-06T14:42:19;17.40;99.90
3001;DHT22;1510;51.072;6.678;2023-05-06T14:44:47;17.50;99.90
3001;DHT22;1510;51.072;6.678;2023-05-06T14:47:17;17.50;99.90
3001;DHT22;1510;51.072;6.678;2023-05-06T14:49:44;17.40;99.90
3001;DHT22;1510;51.072;6.678;2023-05-06T14:52:11;17.20;99.90
3001;DHT22;1510;51.072;6.678;2023-05-06T14:54:40;17.20;99.90
3001;DHT22;1510;51.072;6.678;2023-05-06T14:57:09;17.10;99.90
3001;DHT22;1510;51.072;6.678;2023-05-06T14:59:37;17.10;99.90
3001;DHT22;1510;51.072;6.678;2023-05-06T15:02:07;17.10;99.90
3001;DHT22;1510;51.072;6.678;2023-05-06T15:04:34;17.20;99.90
3001;DHT22;1510;51.072;6.678;2023-05-06T15:07:02;17.20;99.90
3001;DHT22;1510;51.072;6.678;2023-05-06T15:09:29;17.20;99.90
3001;DHT22;1510;51.072;6.678;2023-05-06T15:11:57;17.30;99.90
3001;DHT22;1510;51.072;6.678;2023-05-06T15:14:25;17.20;99.90
3001;DHT22;1510;51.072;6.678;2023-05-06T15:19:20;17.00;99.90
3001;DHT22;1510;51.072;6.678;2023-05-06T15:21:46;17.00;99.90
3001;DHT22;1510;51.072;6.678;2023-05-06T15:24:13;17.00;99.90
3001;DHT22;1510;51.072;6.678;2023-05-06T15:26:40;17.00;99.90
3001;DHT22;1510;51.072;6.678;2023-05-06T15:29:10;16.90;99.90
3001;DHT22;1510;51.072;6.678;2023-05-06T15:31:37;16.90;99.90
3001;DHT22;1510;51.072;6.678;2023-05-06T15:34:05;16.90;99.90
3001;DHT22;1510;51.072;6.678;2023-05-06T15:36:32;17.00;99.90
3001;DHT22;1510;51.072;6.678;2023-05-06T15:38:59;17.00;99.90
3001;DHT22;1510;51.072;6.678;2023-05-06T15:41:28;17.10;99.90
3001;DHT22;1510;51.072;6.678;2023-05-06T15:43:56;17.10;99.90
3001;DHT22;1510;51.072;6.678;2023-05-06T15:46:25;17.30;99.90
3001;DHT22;1510;51.072;6.678;2023-05-06T15:48:52;17.30;99.90
3001;DHT22;1510;51.072;6.678;2023-05-06T15:51:19;17.50;99.90
3001;DHT22;1510;51.072;6.678;2023-05-06T15:53:46;17.50;99.90
3001;DHT22;1510;51.072;6.678;2023-05-06T15:56:13;17.50;99.90
3001;DHT22;1510;51.072;6.678;2023-05-06T15:58:42;17.50;99.90
3001;DHT22;1510;51.072;6.678;2023-05-06T16:01:09;17.50;99.90
3001;DHT22;1510;51.072;6.678;2023-05-06T16:03:38;17.40;99.90
3001;DHT22;1510;51.072;6.678;2023-05-06T16:06:06;17.30;99.90
3001;DHT22;1510;51.072;6.678;2023-05-06T16:08:34;17.30;99.90
3001;DHT22;1510;51.072;6.678;2023-05-06T16:11:01;17.20;99.90
3001;DHT22;1510;51.072;6.678;2023-05-06T16:13:28;17.30;99.90
3001;DHT22;1510;51.072;6.678;2023-05-06T16:15:55;17.30;99.90